Terminal Aerodrome Forecast
Issued by NWS

Home | Current Version | Previous Version | Text Only | Print | Product List | Glossary On
Versions: 1 2 3 4 5 6 7 8 9 10 11 12 13 14 15 16 17 18 19 20 21 22 23 24 25 26 27 28
000
FTUS41 KBOX 100536 CCA
TAFACK
TAF COR
KACK 100536Z 1006/1106 23010KT 4SM -SHRA VCTS OVC005CB
      TEMPO 1007/1011 23015G25KT 2SM -TSRA OVC035CB
     FM101200 26008KT P6SM OVC040
     FM102000 16004KT P6SM OVC060
     FM110000 VRB03KT 1/2SM FG OVC008=

USA.gov is the U.S. government's official web portal to all federal, state and local government web resources and services.